Terminal Aerodrome Forecast
Issued by NWS

Home | Current Version | Previous Version | Graphics & Text | Print | Product List | Glossary On
Versions: 1 2 3 4 5 6 7 8 9 10 11 12 13 14
000
FTUS43 KBIS 230500
TAFMOT
TAF
KMOT 230536Z 2306/2406 22007KT P6SM SCT060
     FM231800 22012KT P6SM SKC
     FM240200 21007KT P6SM BKN100=

USA.gov is the U.S. government's official web portal to all federal, state and local government web resources and services.